sensor_id;sensor_type;location;lat;lon;timestamp;pressure;altitude;pressure_sealevel;temperature;humidity
61740;BME280;47645;45.288;12.038;2024-01-30T00:01:23;1036.449443257858;;;1.8751953125;100
61740;BME280;47645;45.288;12.038;2024-01-30T00:11:26;1036.504307140792;;;1.6;100
61740;BME280;47645;45.288;12.038;2024-01-30T00:21:25;1036.4640969076404;;;1.6205078125;100
61740;BME280;47645;45.288;12.038;2024-01-30T00:31:24;1036.3997587018305;;;1.6255859375;100
61740;BME280;47645;45.288;12.038;2024-01-30T00:41:25;1036.4709023195353;;;1.4828125;100
61740;BME280;47645;45.288;12.038;2024-01-30T00:51:25;1036.4490860614176;;;1.5033203125;100
61740;BME280;47645;45.288;12.038;2024-01-30T01:01:25;1036.3867732004742;;;1.5134765625;100
61740;BME280;47645;45.288;12.038;2024-01-30T01:11:26;1036.438585383271;;;1.2025390625;100
61740;BME280;47645;45.288;12.038;2024-01-30T01:21:27;1036.411634259756;;;1.37578125;100
61740;BME280;47645;45.288;12.038;2024-01-30T01:31:30;1036.349818182439;;;1.3146484375;100
61740;BME280;47645;45.288;12.038;2024-01-30T01:41:30;1036.1974898845688;;;1.1974609375;100
61740;BME280;47645;45.288;12.038;2024-01-30T01:51:28;1036.1738290179337;;;0.570703125;100
61740;BME280;47645;45.288;12.038;2024-01-30T02:01:29;1036.1949278244945;;;0.9580078125;100
61740;BME280;47645;45.288;12.038;2024-01-30T02:11:28;1036.1866222227477;;;0.565625;100
61740;BME280;47645;45.288;12.038;2024-01-30T02:21:28;1036.1252724399205;;;0.8611328125;100
61740;BME280;47645;45.288;12.038;2024-01-30T02:31:28;1036.0748067703928;;;0.8814453125;100
61740;BME280;47645;45.288;12.038;2024-01-30T02:41:29;1035.9430273626726;;;0.5859375;100
61740;BME280;47645;45.288;12.038;2024-01-30T02:51:29;1035.951866909508;;;0.0203125;100
61740;BME280;47645;45.288;12.038;2024-01-30T03:01:30;1035.9811918404187;;;0.12734375;100
61740;BME280;47645;45.288;12.038;2024-01-30T03:11:30;1035.8082714498735;;;0.5197265625;100
61740;BME280;47645;45.288;12.038;2024-01-30T03:21:30;1035.786200345609;;;0.591015625;100
61740;BME280;47645;45.288;12.038;2024-01-30T03:31:31;1035.840433359164;;;0.162890625;100
61740;BME280;47645;45.288;12.038;2024-01-30T03:41:31;1035.779471043127;;;0.7287109375;100
61740;BME280;47645;45.288;12.038;2024-01-30T03:51:31;1035.7245200964633;;;0.7642578125;100
61740;BME280;47645;45.288;12.038;2024-01-30T04:01:32;1035.745773893594;;;0.896875;100
61740;BME280;47645;45.288;12.038;2024-01-30T04:11:32;1035.6093781769205;;;0.8357421875;100
61740;BME280;47645;45.288;12.038;2024-01-30T04:21:33;1035.6909212681587;;;0.8458984375;100
61740;BME280;47645;45.288;12.038;2024-01-30T04:31:33;1035.7541018637944;;;0.896875;100
61740;BME280;47645;45.288;12.038;2024-01-30T04:41:34;1035.7535652896222;;;0.805078125;100
61740;BME280;47645;45.288;12.038;2024-01-30T04:51:34;1035.7789218963635;;;0.7490234375;100
61740;BME280;47645;45.288;12.038;2024-01-30T05:01:34;1035.791940282037;;;0.6828125;100
61740;BME280;47645;45.288;12.038;2024-01-30T05:11:37;1035.8294381245369;;;0.6521484375;100
61740;BME280;47645;45.288;12.038;2024-01-30T05:21:35;1035.8604485076019;;;0.580859375;100
61740;BME280;47645;45.288;12.038;2024-01-30T05:31:35;1035.8667884603433;;;0.6115234375;100
61740;BME280;47645;45.288;12.038;2024-01-30T05:41:35;1035.9245927621666;;;0.580859375;100
61740;BME280;47645;45.288;12.038;2024-01-30T05:51:36;1035.9856127973735;;;0.5451171875;100
61740;BME280;47645;45.288;12.038;2024-01-30T06:01:36;1036.0963482960399;;;0.4994140625;100
61740;BME280;47645;45.288;12.038;2024-01-30T06:11:37;1035.9932906353706;;;0.463671875;100
61740;BME280;47645;45.288;12.038;2024-01-30T06:21:37;1036.0560343456295;;;0.4994140625;100
61740;BME280;47645;45.288;12.038;2024-01-30T06:31:40;1035.989233753905;;;0.4025390625;100
61740;BME280;47645;45.288;12.038;2024-01-30T06:41:38;1036.1588075215288;;;0.4994140625;100
61740;BME280;47645;45.288;12.038;2024-01-30T06:51:38;1036.2087191649518;;;0.560546875;100
61740;BME280;47645;45.288;12.038;2024-01-30T07:01:38;1036.2168451628752;;;0.45859375;100
61740;BME280;47645;45.288;12.038;2024-01-30T07:11:39;1036.3000417630067;;;0.5248046875;100
61740;BME280;47645;45.288;12.038;2024-01-30T07:21:41;1036.374433402119;;;0.6318359375;100
61740;BME280;47645;45.288;12.038;2024-01-30T07:31:39;1036.4589107662575;;;0.6521484375;100
61740;BME280;47645;45.288;12.038;2024-01-30T07:41:40;1036.6230260797768;;;0.677734375;100
61740;BME280;47645;45.288;12.038;2024-01-30T07:51:40;1036.6355115499;;;0.708203125;100
61740;BME280;47645;45.288;12.038;2024-01-30T08:01:41;1036.6614982025112;;;0.81015625;100
61740;BME280;47645;45.288;12.038;2024-01-30T08:11:41;1036.6154954627966;;;1.029296875;100
61740;BME280;47645;45.288;12.038;2024-01-30T08:21:42;1036.649253861048;;;0.998828125;100
61740;BME280;47645;45.288;12.038;2024-01-30T08:31:41;1036.7413332829672;;;1.447265625;100
61740;BME280;47645;45.288;12.038;2024-01-30T08:41:42;1036.7525851731373;;;1.467578125;100
61740;BME280;47645;45.288;12.038;2024-01-30T08:51:42;1036.8432200190173;;;1.6306640625;100
61740;BME280;47645;45.288;12.038;2024-01-30T09:01:42;1036.8691286953158;;;1.68671875;100
61740;BME280;47645;45.288;12.038;2024-01-30T09:11:44;1036.7453004177864;;;2.0537109375;100
61740;BME280;47645;45.288;12.038;2024-01-30T09:21:43;1036.6738237727855;;;1.92109375;100
61740;BME280;47645;45.288;12.038;2024-01-30T09:31:43;1036.6856185137174;;;2.2115234375;100
61740;BME280;47645;45.288;12.038;2024-01-30T09:41:46;1036.7111010466358;;;2.4052734375;100
61740;BME280;47645;45.288;12.038;2024-01-30T09:51:45;1036.8079565700891;;;2.919921875;100
61740;BME280;47645;45.288;12.038;2024-01-30T10:01:45;1036.7633511625754;;;2.8638671875;100
61740;BME280;47645;45.288;12.038;2024-01-30T10:11:46;1036.647052839895;;;3.2970703125;100
61740;BME280;47645;45.288;12.038;2024-01-30T10:21:46;1036.6747748496427;;;3.0880859375;100
61740;BME280;47645;45.288;12.038;2024-01-30T10:31:58;1036.6742751657591;;;3.3787109375;100
61740;BME280;47645;45.288;12.038;2024-01-30T10:41:47;1036.4502947583335;;;3.77109375;100
61740;BME280;47645;45.288;12.038;2024-01-30T10:51:47;1036.275595546731;;;4.525390625;100
61740;BME280;47645;45.288;12.038;2024-01-30T11:01:47;1036.1042501300635;;;4.1888671875;100
61740;BME280;47645;45.288;12.038;2024-01-30T11:11:49;1036.013303659021;;;5.111328125;100
61740;BME280;47645;45.288;12.038;2024-01-30T11:21:50;1035.91617799633;;;5.9013671875;100
61740;BME280;47645;45.288;12.038;2024-01-30T11:31:52;1035.7621661838257;;;6.38046875;100
61740;BME280;47645;45.288;12.038;2024-01-30T11:41:51;1035.6643034364324;;;7.027734375;100
61740;BME280;47645;45.288;12.038;2024-01-30T11:51:50;1035.4557269624938;;;7.4404296875;100
61740;BME280;47645;45.288;12.038;2024-01-30T12:01:52;1035.3543312512597;;;7.9908203125;100
61740;BME280;47645;45.288;12.038;2024-01-30T12:11:51;1035.1217942534092;;;8.683984375;100
61740;BME280;47645;45.288;12.038;2024-01-30T12:21:55;1035.0579606536978;;;9.132421875;100
61740;BME280;47645;45.288;12.038;2024-01-30T12:31:53;1034.8608127750726;;;9.3568359375;100
61740;BME280;47645;45.288;12.038;2024-01-30T12:41:53;1034.7600328575186;;;9.4484375;100
61740;BME280;47645;45.288;12.038;2024-01-30T12:51:53;1034.6688489101934;;;9.7134765625;100
61740;BME280;47645;45.288;12.038;2024-01-30T13:01:54;1034.6721483160195;;;9.76953125;100
61740;BME280;47645;45.288;12.038;2024-01-30T13:11:55;1034.5115211494613;;;9.774609375;100
61740;BME280;47645;45.288;12.038;2024-01-30T13:21:56;1034.4462052091349;;;9.6880859375;100
61740;BME280;47645;45.288;12.038;2024-01-30T13:31:57;1034.3683979050493;;;9.7287109375;100
61740;BME280;47645;45.288;12.038;2024-01-30T13:41:57;1034.2810222383966;;;9.667578125;100
61740;BME280;47645;45.288;12.038;2024-01-30T13:51:58;1034.2567991941228;;;9.754296875;100
61740;BME280;47645;45.288;12.038;2024-01-30T14:01:58;1034.2291032380415;;;9.8103515625;100
61740;BME280;47645;45.288;12.038;2024-01-30T14:11:59;1034.228713230188;;;9.5759765625;100
61740;BME280;47645;45.288;12.038;2024-01-30T14:21:59;1034.2434998685953;;;9.4791015625;100
61740;BME280;47645;45.288;12.038;2024-01-30T14:32:00;1034.2709320546066;;;9.3720703125;100
61740;BME280;47645;45.288;12.038;2024-01-30T14:42:00;1034.2582563673807;;;9.1681640625;100
61740;BME280;47645;45.288;12.038;2024-01-30T14:52:01;1034.2696445414904;;;8.9796875;100
61740;BME280;47645;45.288;12.038;2024-01-30T15:02:02;1034.3295575821487;;;8.8369140625;100
61740;BME280;47645;45.288;12.038;2024-01-30T15:12:03;1034.389965553246;;;8.439453125;100
61740;BME280;47645;45.288;12.038;2024-01-30T15:22:03;1034.2897755945653;;;8.2966796875;100
61740;BME280;47645;45.288;12.038;2024-01-30T15:32:04;1034.2376559389477;;;7.9603515625;100
61740;BME280;47645;45.288;12.038;2024-01-30T15:42:04;1034.1937332288517;;;7.6697265625;100
61740;BME280;47645;45.288;12.038;2024-01-30T15:52:05;1034.22150067689;;;7.49140625;100
61740;BME280;47645;45.288;12.038;2024-01-30T16:02:05;1034.3457816558966;;;6.9970703125;100
61740;BME280;47645;45.288;12.038;2024-01-30T16:12:06;1034.4340939327924;;;6.716796875;100
61740;BME280;47645;45.288;12.038;2024-01-30T16:22:06;1034.5740185240343;;;6.4109375;100
61740;BME280;47645;45.288;12.038;2024-01-30T16:32:07;1034.6667737137248;;;6.2224609375;100
61740;BME280;47645;45.288;12.038;2024-01-30T16:42:08;1034.6082702280605;;;5.87578125;100
61740;BME280;47645;45.288;12.038;2024-01-30T16:52:08;1034.638564316052;;;5.54453125;100
61740;BME280;47645;45.288;12.038;2024-01-30T17:02:08;1034.6800488799086;;;5.3458984375;100
61740;BME280;47645;45.288;12.038;2024-01-30T17:12:10;1034.7628427157993;;;5.0451171875;100
61740;BME280;47645;45.288;12.038;2024-01-30T17:22:10;1034.7849930238249;;;5.0552734375;100
61740;BME280;47645;45.288;12.038;2024-01-30T17:32:10;1034.8066755508835;;;4.683203125;100
61740;BME280;47645;45.288;12.038;2024-01-30T17:42:11;1034.8546556992674;;;4.57109375;100
61740;BME280;47645;45.288;12.038;2024-01-30T17:52:12;1034.8595592062259;;;4.4845703125;100
61740;BME280;47645;45.288;12.038;2024-01-30T18:02:14;1034.947391066893;;;4.4029296875;100
61740;BME280;47645;45.288;12.038;2024-01-30T18:12:13;1035.0541005243354;;;4.087109375;100
61740;BME280;47645;45.288;12.038;2024-01-30T18:22:12;1035.0629401450958;;;3.9443359375;100
61740;BME280;47645;45.288;12.038;2024-01-30T18:32:13;1035.0558167020376;;;3.78125;100
61740;BME280;47645;45.288;12.038;2024-01-30T18:42:13;1035.0285497618077;;;3.6130859375;100
61740;BME280;47645;45.288;12.038;2024-01-30T18:52:14;1034.9991198543537;;;3.4958984375;100
61740;BME280;47645;45.288;12.038;2024-01-30T19:02:14;1035.1007388173696;;;3.4908203125;100
61740;BME280;47645;45.288;12.038;2024-01-30T19:12:15;1035.0931015664387;;;3.465234375;100
61740;BME280;47645;45.288;12.038;2024-01-30T19:22:15;1035.193165298488;;;3.3021484375;100
61740;BME280;47645;45.288;12.038;2024-01-30T19:32:15;1035.136812947712;;;3.3123046875;100
61740;BME280;47645;45.288;12.038;2024-01-30T19:42:16;1035.153884013631;;;3.1951171875;100
61740;BME280;47645;45.288;12.038;2024-01-30T19:52:16;1035.1603958377923;;;3.1646484375;100
61740;BME280;47645;45.288;12.038;2024-01-30T20:02:19;1035.1796100518447;;;3.10859375;100
61740;BME280;47645;45.288;12.038;2024-01-30T20:12:18;1035.163018410097;;;2.99140625;100
61740;BME280;47645;45.288;12.038;2024-01-30T20:22:18;1035.1768958744406;;;2.889453125;100
61740;BME280;47645;45.288;12.038;2024-01-30T20:32:18;1035.1350301246846;;;2.8587890625;100
61740;BME280;47645;45.288;12.038;2024-01-30T20:42:19;1035.2347512135048;;;2.8638671875;100
61740;BME280;47645;45.288;12.038;2024-01-30T20:52:19;1035.278025479204;;;2.782421875;100
61740;BME280;47645;45.288;12.038;2024-01-30T21:02:20;1035.279154447547;;;2.6396484375;100
61740;BME280;47645;45.288;12.038;2024-01-30T21:12:20;1035.1886934693757;;;2.56328125;100
61740;BME280;47645;45.288;12.038;2024-01-30T21:22:20;1035.1490983027868;;;2.323828125;100
61740;BME280;47645;45.288;12.038;2024-01-30T21:32:21;1035.2085240749723;;;2.267578125;100
61740;BME280;47645;45.288;12.038;2024-01-30T21:42:21;1035.2024186853043;;;2.2880859375;100
61740;BME280;47645;45.288;12.038;2024-01-30T21:52:22;1035.0573626084222;;;2.033203125;100
61740;BME280;47645;45.288;12.038;2024-01-30T22:02:22;1034.9676933823694;;;2.0486328125;100
61740;BME280;47645;45.288;12.038;2024-01-30T22:12:25;1034.9911519630336;;;1.9873046875;100
61740;BME280;47645;45.288;12.038;2024-01-30T22:22:23;1035.0728989229945;;;1.8498046875;100
61740;BME280;47645;45.288;12.038;2024-01-30T22:32:24;1035.0631985811422;;;1.7173828125;100
61740;BME280;47645;45.288;12.038;2024-01-30T22:42:24;1035.049556490067;;;1.447265625;100
61740;BME280;47645;45.288;12.038;2024-01-30T22:52:24;1035.0913105265518;;;1.3146484375;100
61740;BME280;47645;45.288;12.038;2024-01-30T23:02:25;1035.0678043316368;;;1.1923828125;100
61740;BME280;47645;45.288;12.038;2024-01-30T23:12:25;1035.0365166711772;;;1.2076171875;100
61740;BME280;47645;45.288;12.038;2024-01-30T23:22:26;1034.9096322367122;;;1.253515625;100
61740;BME280;47645;45.288;12.038;2024-01-30T23:32:26;1034.73829302429;;;1.23828125;100
61740;BME280;47645;45.288;12.038;2024-01-30T23:42:26;1034.6605006911516;;;1.23828125;100
61740;BME280;47645;45.288;12.038;2024-01-30T23:52:27;1034.7187765839176;;;1.2126953125;100
